Time;durP1;ratioP1;P1;durP2;ratioP2;P2;SDS_P1;SDS_P2;PMS_P1;PMS_P2;Temp;Humidity;BMP_temperature;BMP_pressure;BME280_temperature;BME280_humidity;BME280_pressure;Samples;Min_cycle;Max_cycle;Signal;HPM_P1;HPM_P2
2023/03/09 00:00:29;;;;;;;2.30;1.50;;;10.00;99.90;;;;;;6118048;23;20203;-66
2023/03/09 00:02:56;;;;;;;3.80;1.38;;;10.00;99.90;;;;;;6116933;23;20263;-67
2023/03/09 00:05:23;;;;;;;2.00;1.67;;;10.00;99.90;;;;;;6110677;23;20262;-66
2023/03/09 00:07:53;;;;;;;3.20;1.98;;;10.00;99.90;;;;;;6104524;23;20259;-66
2023/03/09 00:10:21;;;;;;;3.10;1.85;;;10.10;99.90;;;;;;6117844;23;20214;-66
2023/03/09 00:12:48;;;;;;;1.60;1.50;;;10.10;99.90;;;;;;6117375;23;20530;-66
2023/03/09 00:15:15;;;;;;;6.65;2.15;;;10.10;99.90;;;;;;6109679;23;20221;-66
2023/03/09 00:17:43;;;;;;;2.70;1.58;;;10.10;99.90;;;;;;6113539;23;20237;-66
2023/03/09 00:20:16;;;;;;;2.72;1.70;;;10.10;99.90;;;;;;6114388;23;20616;-66
2023/03/09 00:22:47;;;;;;;4.30;1.80;;;10.10;99.90;;;;;;6112542;23;20234;-65
2023/03/09 00:25:16;;;;;;;2.30;1.48;;;10.10;99.90;;;;;;6106840;23;20190;-65
2023/03/09 00:27:47;;;;;;;1.77;1.27;;;10.10;99.90;;;;;;6113557;23;20624;-65
2023/03/09 00:30:14;;;;;;;4.05;1.70;;;10.20;99.90;;;;;;6116813;23;20235;-66
2023/03/09 00:32:41;;;;;;;1.50;1.40;;;10.20;99.90;;;;;;6117767;23;20550;-66
2023/03/09 00:35:09;;;;;;;3.10;1.45;;;10.20;99.90;;;;;;6105586;23;20321;-65
2023/03/09 00:37:37;;;;;;;3.33;1.77;;;10.30;99.90;;;;;;6104843;23;20223;-66
2023/03/09 00:40:09;;;;;;;2.55;1.52;;;10.30;99.90;;;;;;6116099;23;20214;-65
2023/03/09 00:42:38;;;;;;;2.00;1.80;;;10.20;99.90;;;;;;6118769;23;20215;-66
2023/03/09 00:45:06;;;;;;;1.85;1.20;;;10.20;99.90;;;;;;6110847;23;20558;-65
2023/03/09 00:47:33;;;;;;;2.42;1.20;;;10.20;99.90;;;;;;6110049;23;20218;-65
2023/03/09 00:50:01;;;;;;;2.60;1.25;;;10.20;99.90;;;;;;6111213;23;20297;-65
2023/03/09 00:52:28;;;;;;;1.75;1.10;;;10.10;99.90;;;;;;6115310;23;20189;-66
2023/03/09 00:54:55;;;;;;;1.33;1.20;;;10.10;99.90;;;;;;6110954;23;20189;-65
2023/03/09 00:57:23;;;;;;;3.97;1.50;;;10.10;99.90;;;;;;6100065;23;20271;-65
2023/03/09 00:59:51;;;;;;;1.80;1.20;;;10.10;99.90;;;;;;6114375;23;20210;-66
2023/03/09 01:02:19;;;;;;;1.83;0.95;;;10.00;99.90;;;;;;6114835;23;20194;-66
2023/03/09 01:04:46;;;;;;;1.13;0.80;;;10.00;99.90;;;;;;6112284;23;20188;-65
2023/03/09 01:07:13;;;;;;;0.80;0.68;;;10.00;99.90;;;;;;6103835;23;20183;-65
2023/03/09 01:09:41;;;;;;;1.20;0.60;;;10.00;99.90;;;;;;6113418;23;20209;-66
2023/03/09 01:12:09;;;;;;;1.05;0.70;;;10.00;99.90;;;;;;6117046;23;20183;-66
2023/03/09 01:14:36;;;;;;;1.70;0.70;;;10.00;99.90;;;;;;6101497;23;20195;-66
2023/03/09 01:17:04;;;;;;;1.13;0.60;;;10.10;99.90;;;;;;6113590;23;20183;-65
2023/03/09 01:19:31;;;;;;;1.35;0.93;;;10.00;99.90;;;;;;6109248;23;20227;-65
2023/03/09 01:21:58;;;;;;;1.38;0.60;;;10.10;99.90;;;;;;6115454;23;20608;-65
2023/03/09 01:24:26;;;;;;;1.38;0.75;;;10.10;99.90;;;;;;6110918;23;20225;-65
2023/03/09 01:26:53;;;;;;;1.17;0.70;;;10.10;99.90;;;;;;6102934;23;20186;-65
2023/03/09 01:29:20;;;;;;;1.05;0.65;;;10.00;99.90;;;;;;6113720;23;20207;-65
2023/03/09 01:31:47;;;;;;;0.80;0.70;;;10.00;99.90;;;;;;6117565;23;20306;-65
2023/03/09 01:34:16;;;;;;;2.65;0.70;;;10.00;99.90;;;;;;6111991;23;20770;-64
2023/03/09 01:36:43;;;;;;;0.98;0.50;;;9.90;99.90;;;;;;6119135;23;20266;-65
2023/03/09 01:39:10;;;;;;;1.88;0.60;;;9.90;99.90;;;;;;6109613;23;20674;-65
2023/03/09 01:41:38;;;;;;;1.05;0.80;;;9.90;99.90;;;;;;6113485;23;20702;-65
2023/03/09 01:44:05;;;;;;;2.30;0.65;;;9.90;99.90;;;;;;6111434;23;20265;-65
2023/03/09 01:46:39;;;;;;;0.73;0.50;;;9.90;99.90;;;;;;6111114;23;20198;-65
2023/03/09 01:49:27;;;;;;;0.77;0.65;;;9.90;99.90;;;;;;6108906;23;20255;-65
2023/03/09 01:52:01;;;;;;;2.17;0.90;;;9.90;99.90;;;;;;6113214;23;20202;-64
2023/03/09 01:54:33;;;;;;;0.80;0.52;;;10.00;99.90;;;;;;6107332;23;20183;-65
2023/03/09 01:57:05;;;;;;;0.85;0.60;;;10.00;99.90;;;;;;6106086;23;20263;-64
2023/03/09 01:59:33;;;;;;;1.15;0.57;;;10.00;99.90;;;;;;6105636;23;20249;-64
2023/03/09 02:02:02;;;;;;;1.10;0.60;;;10.10;99.90;;;;;;6107654;23;20585;-64
2023/03/09 02:04:35;;;;;;;1.63;0.60;;;10.10;99.90;;;;;;6114453;23;20215;-65
2023/03/09 02:07:04;;;;;;;1.88;0.60;;;10.10;99.90;;;;;;6117953;23;20211;-64
2023/03/09 02:09:36;;;;;;;0.73;0.65;;;10.20;99.90;;;;;;6109411;23;20230;-65
2023/03/09 02:12:04;;;;;;;0.98;0.70;;;10.20;99.90;;;;;;6118926;23;20183;-64
2023/03/09 02:14:32;;;;;;;1.45;0.63;;;10.20;99.90;;;;;;6104715;23;20180;-65
2023/03/09 02:16:58;;;;;;;1.10;0.68;;;10.20;99.90;;;;;;6112557;23;20204;-64
2023/03/09 02:19:52;;;;;;;1.33;0.60;;;10.30;99.90;;;;;;6106222;23;20234;-64
2023/03/09 02:22:20;;;;;;;0.90;0.60;;;10.30;99.90;;;;;;6113601;23;20585;-65
2023/03/09 02:24:56;;;;;;;0.60;0.40;;;10.30;99.90;;;;;;6110042;23;20222;-65
2023/03/09 02:27:27;;;;;;;1.10;0.57;;;10.30;99.90;;;;;;6110095;23;20175;-66
2023/03/09 02:29:55;;;;;;;1.15;0.47;;;10.30;99.90;;;;;;6110317;23;20213;-65
2023/03/09 02:32:22;;;;;;;0.65;0.57;;;10.30;99.90;;;;;;6116617;23;20187;-65
2023/03/09 02:34:49;;;;;;;0.57;0.50;;;10.40;99.90;;;;;;6116138;23;20179;-65
2023/03/09 02:37:29;;;;;;;0.60;0.50;;;10.40;99.90;;;;;;6115588;23;20188;-65
2023/03/09 02:39:59;;;;;;;0.60;0.57;;;10.40;99.90;;;;;;6114988;23;20206;-65
2023/03/09 02:42:28;;;;;;;1.02;0.47;;;10.40;99.90;;;;;;6117980;23;20192;-65
2023/03/09 02:44:56;;;;;;;1.13;0.50;;;10.40;99.90;;;;;;6113586;23;20222;-66
2023/03/09 02:47:23;;;;;;;0.60;0.50;;;10.40;99.90;;;;;;6114701;23;20270;-65
2023/03/09 02:49:51;;;;;;;0.75;0.60;;;10.40;99.90;;;;;;6107795;23;20222;-65
2023/03/09 02:52:18;;;;;;;1.05;0.60;;;10.40;99.90;;;;;;6115816;23;20592;-65
2023/03/09 02:54:45;;;;;;;0.80;0.50;;;10.40;99.90;;;;;;6113081;23;20214;-66
2023/03/09 02:57:13;;;;;;;1.33;0.60;;;10.40;99.90;;;;;;6105662;23;20505;-65
2023/03/09 02:59:41;;;;;;;0.70;0.50;;;10.40;99.90;;;;;;6114318;23;20286;-65
2023/03/09 03:02:09;;;;;;;1.10;0.60;;;10.40;99.90;;;;;;6116291;23;20283;-65
2023/03/09 03:04:36;;;;;;;0.73;0.60;;;10.30;99.90;;;;;;6113527;23;20329;-65
2023/03/09 03:07:03;;;;;;;1.20;1.00;;;10.30;99.90;;;;;;6118512;23;20266;-65
2023/03/09 03:09:30;;;;;;;0.70;0.50;;;10.20;99.90;;;;;;6102844;23;20228;-65
2023/03/09 03:11:57;;;;;;;0.60;0.50;;;10.20;99.90;;;;;;6113498;23;20192;-65
2023/03/09 03:14:24;;;;;;;1.17;0.50;;;10.10;99.90;;;;;;6113926;23;20183;-65
2023/03/09 03:16:53;;;;;;;1.13;0.60;;;10.00;99.90;;;;;;6106359;23;20259;-64
2023/03/09 03:19:20;;;;;;;1.45;0.60;;;10.00;99.90;;;;;;6110892;23;20237;-65
2023/03/09 03:21:48;;;;;;;0.60;0.50;;;9.90;99.90;;;;;;6093794;23;20310;-66
2023/03/09 03:24:15;;;;;;;1.15;0.50;;;9.80;99.90;;;;;;6110880;23;20694;-65
2023/03/09 03:26:42;;;;;;;0.57;0.47;;;9.80;99.90;;;;;;6103084;23;20191;-66
2023/03/09 03:29:09;;;;;;;0.70;0.50;;;9.60;99.90;;;;;;6110201;23;20203;-65
2023/03/09 03:31:36;;;;;;;0.60;0.50;;;9.40;99.90;;;;;;6116147;23;20662;-65
2023/03/09 03:34:05;;;;;;;1.15;0.88;;;9.30;99.90;;;;;;6116159;23;20183;-65
2023/03/09 03:36:32;;;;;;;0.95;0.57;;;9.10;99.90;;;;;;6108198;23;20241;-66
2023/03/09 03:38:59;;;;;;;0.90;0.68;;;9.00;99.90;;;;;;6107367;23;20800;-66
2023/03/09 03:41:26;;;;;;;2.03;0.60;;;9.00;99.90;;;;;;6110406;23;20504;-65
2023/03/09 03:43:53;;;;;;;1.65;0.77;;;9.00;99.90;;;;;;6103796;23;20218;-65
2023/03/09 03:46:19;;;;;;;1.38;0.65;;;8.90;99.90;;;;;;6108344;23;20276;-65
2023/03/09 03:48:47;;;;;;;1.45;0.70;;;8.90;99.90;;;;;;6110683;23;20488;-65
2023/03/09 03:51:15;;;;;;;1.10;0.73;;;8.90;99.90;;;;;;6108724;23;20662;-66
2023/03/09 03:53:42;;;;;;;0.95;0.85;;;8.90;99.90;;;;;;6113566;23;20222;-66
2023/03/09 03:56:10;;;;;;;1.45;0.80;;;8.90;99.90;;;;;;6117073;23;20185;-65
2023/03/09 03:58:37;;;;;;;3.65;0.68;;;9.00;99.90;;;;;;6113502;23;20215;-65
2023/03/09 04:01:06;;;;;;;2.15;1.40;;;9.00;99.90;;;;;;6106586;23;20278;-65
2023/03/09 04:03:33;;;;;;;1.85;0.88;;;9.10;99.90;;;;;;6117044;23;20229;-66
2023/03/09 04:06:02;;;;;;;1.60;0.82;;;9.10;99.90;;;;;;6118019;23;20191;-65
2023/03/09 04:08:30;;;;;;;1.90;0.85;;;9.10;99.90;;;;;;6109634;23;20208;-65
2023/03/09 04:10:58;;;;;;;2.50;0.95;;;9.20;99.90;;;;;;6116587;23;20274;-65
2023/03/09 04:13:25;;;;;;;2.85;1.30;;;9.20;99.90;;;;;;6112918;23;20614;-65
2023/03/09 04:15:52;;;;;;;2.17;1.05;;;9.20;99.90;;;;;;6113242;23;20190;-66
2023/03/09 04:18:19;;;;;;;1.52;0.90;;;9.20;99.90;;;;;;6112723;23;20238;-65
2023/03/09 04:20:46;;;;;;;1.42;1.00;;;9.20;99.90;;;;;;6117443;23;20198;-65
2023/03/09 04:23:13;;;;;;;3.15;1.25;;;9.30;99.90;;;;;;6113365;23;20226;-66
2023/03/09 04:25:41;;;;;;;3.83;1.33;;;9.30;99.90;;;;;;6116738;23;20592;-65
2023/03/09 04:28:09;;;;;;;6.25;1.48;;;9.30;99.90;;;;;;6115743;23;20266;-65
2023/03/09 04:30:36;;;;;;;4.30;1.60;;;9.30;99.90;;;;;;6116699;23;20263;-66
2023/03/09 04:33:03;;;;;;;4.40;1.38;;;9.30;99.90;;;;;;6114950;23;20520;-66
2023/03/09 04:35:30;;;;;;;4.10;1.48;;;9.30;99.90;;;;;;6108849;23;20211;-65
2023/03/09 04:37:57;;;;;;;4.25;1.45;;;9.30;99.90;;;;;;6110425;23;20203;-66
2023/03/09 04:40:24;;;;;;;2.33;1.33;;;9.30;99.90;;;;;;6116938;23;20573;-65
2023/03/09 04:42:52;;;;;;;5.22;1.70;;;9.30;99.90;;;;;;6112421;23;20274;-66
2023/03/09 04:45:19;;;;;;;4.50;1.20;;;9.30;99.90;;;;;;6115315;23;20301;-65
2023/03/09 04:47:47;;;;;;;4.13;1.65;;;9.40;99.90;;;;;;6114663;23;20179;-66
2023/03/09 04:50:14;;;;;;;4.13;1.40;;;9.30;99.90;;;;;;6112288;23;20207;-65
2023/03/09 04:52:41;;;;;;;7.60;1.67;;;9.40;99.90;;;;;;6108796;23;20183;-66
2023/03/09 04:55:09;;;;;;;6.05;2.00;;;9.40;99.90;;;;;;6116541;23;20292;-66
2023/03/09 04:57:36;;;;;;;5.45;1.60;;;9.30;99.90;;;;;;6115778;23;20179;-65
2023/03/09 05:00:08;;;;;;;3.25;1.70;;;9.40;99.90;;;;;;6108579;23;20286;-65
2023/03/09 05:02:35;;;;;;;3.17;1.83;;;9.40;99.90;;;;;;6111590;23;20191;-65
2023/03/09 05:05:02;;;;;;;4.20;1.73;;;9.40;99.90;;;;;;6113787;23;20210;-66
2023/03/09 05:07:29;;;;;;;7.07;2.30;;;9.40;99.90;;;;;;6115919;23;20194;-65
2023/03/09 05:09:56;;;;;;;2.80;1.90;;;9.40;99.90;;;;;;6117218;23;20218;-65
2023/03/09 05:12:23;;;;;;;4.20;1.38;;;9.30;99.90;;;;;;6108010;23;20843;-65
2023/03/09 05:14:50;;;;;;;4.63;1.67;;;9.30;99.90;;;;;;6102420;23;20365;-65
2023/03/09 05:17:18;;;;;;;4.85;1.88;;;9.30;99.90;;;;;;6115148;23;20281;-65
2023/03/09 05:19:45;;;;;;;5.00;1.55;;;9.30;99.90;;;;;;6112236;23;20309;-66
2023/03/09 05:22:12;;;;;;;10.40;2.28;;;9.30;99.90;;;;;;6112657;23;20194;-65
2023/03/09 05:24:39;;;;;;;3.00;1.77;;;9.30;99.90;;;;;;6116717;23;20215;-65
2023/03/09 05:27:06;;;;;;;6.10;2.15;;;9.30;99.90;;;;;;6116906;23;20287;-65
2023/03/09 05:29:33;;;;;;;5.70;1.65;;;9.30;99.90;;;;;;6091141;23;20287;-65
2023/03/09 05:32:01;;;;;;;4.60;1.70;;;9.30;99.90;;;;;;6117497;23;20194;-67
2023/03/09 05:34:29;;;;;;;5.88;1.35;;;9.30;99.90;;;;;;6109622;23;20198;-65
2023/03/09 05:36:56;;;;;;;5.72;1.73;;;9.20;99.90;;;;;;6119042;23;20596;-66
2023/03/09 05:39:24;;;;;;;7.90;1.67;;;9.30;99.90;;;;;;6118149;23;20290;-66
2023/03/09 05:41:51;;;;;;;6.28;2.33;;;9.30;99.90;;;;;;6101404;23;20207;-66
2023/03/09 05:44:18;;;;;;;5.57;2.20;;;9.30;99.90;;;;;;6116221;23;20222;-66
2023/03/09 05:46:45;;;;;;;4.72;1.60;;;9.40;99.90;;;;;;6102515;23;20184;-67
2023/03/09 05:49:12;;;;;;;5.57;2.10;;;9.40;99.90;;;;;;6108233;23;20264;-65
2023/03/09 05:51:40;;;;;;;4.55;1.80;;;9.50;99.90;;;;;;6115315;23;20195;-66
2023/03/09 05:54:08;;;;;;;3.88;1.88;;;9.50;99.90;;;;;;6118179;23;20186;-66
2023/03/09 05:56:35;;;;;;;6.35;2.40;;;9.50;99.90;;;;;;6115430;23;20194;-65
2023/03/09 05:59:02;;;;;;;7.20;1.88;;;9.50;99.90;;;;;;6118046;23;20217;-65
2023/03/09 06:01:31;;;;;;;5.00;1.73;;;9.50;99.90;;;;;;6118499;23;20277;-65
2023/03/09 06:03:58;;;;;;;3.88;1.70;;;9.50;99.90;;;;;;6114521;23;20274;-66
2023/03/09 06:06:25;;;;;;;4.35;1.83;;;9.50;99.90;;;;;;6106764;23;20268;-66
2023/03/09 06:08:53;;;;;;;3.55;1.58;;;9.50;99.90;;;;;;6116007;23;20210;-66
2023/03/09 06:11:21;;;;;;;6.10;1.92;;;9.50;99.90;;;;;;6112566;23;20204;-64
2023/03/09 06:13:47;;;;;;;5.30;2.00;;;9.50;99.90;;;;;;6112473;23;20272;-66
2023/03/09 06:16:17;;;;;;;6.60;1.88;;;9.50;99.90;;;;;;6108886;23;20217;-66
2023/03/09 06:18:44;;;;;;;7.85;2.45;;;9.50;99.90;;;;;;6120137;23;20215;-66
2023/03/09 06:21:11;;;;;;;11.25;2.42;;;9.50;99.90;;;;;;6107575;23;20184;-66
2023/03/09 06:23:39;;;;;;;5.30;2.25;;;9.50;99.90;;;;;;6090628;23;20199;-65
2023/03/09 06:26:09;;;;;;;4.68;2.10;;;9.50;99.90;;;;;;6101835;23;20694;-66
2023/03/09 06:28:35;;;;;;;7.40;1.80;;;9.50;99.90;;;;;;6119392;23;20211;-65
2023/03/09 06:31:06;;;;;;;5.05;2.10;;;9.60;99.90;;;;;;6118073;23;20236;-66
2023/03/09 06:33:33;;;;;;;5.50;2.75;;;9.60;99.90;;;;;;6117926;23;20513;-66
2023/03/09 06:36:01;;;;;;;4.60;2.05;;;9.60;99.90;;;;;;6115581;23;20205;-65
2023/03/09 06:38:28;;;;;;;5.25;2.05;;;9.70;99.90;;;;;;6120765;23;20218;-65
2023/03/09 06:40:56;;;;;;;4.47;2.10;;;9.70;99.90;;;;;;6112500;23;20271;-66
2023/03/09 06:43:25;;;;;;;5.47;1.70;;;9.80;99.90;;;;;;6110004;23;20203;-65
2023/03/09 06:45:52;;;;;;;6.35;2.25;;;9.80;99.90;;;;;;6118272;23;20218;-66
2023/03/09 06:48:19;;;;;;;6.68;2.10;;;9.80;99.90;;;;;;6120497;23;20207;-66
2023/03/09 06:50:48;;;;;;;5.72;1.98;;;9.90;99.90;;;;;;6114556;23;20309;-66
2023/03/09 06:53:16;;;;;;;5.22;2.00;;;9.90;99.90;;;;;;6095566;23;20210;-65
2023/03/09 06:55:43;;;;;;;6.93;2.13;;;9.90;99.90;;;;;;6106647;23;20266;-66
2023/03/09 06:58:10;;;;;;;8.88;2.10;;;10.00;99.90;;;;;;6097024;23;20215;-66
2023/03/09 07:00:40;;;;;;;3.47;1.70;;;10.00;99.90;;;;;;6093007;23;20729;-66
2023/03/09 07:03:11;;;;;;;7.00;1.83;;;10.00;99.90;;;;;;6092899;23;20222;-66
2023/03/09 07:05:39;;;;;;;7.30;2.55;;;10.00;99.90;;;;;;6118906;23;20210;-65
2023/03/09 07:08:05;;;;;;;6.47;2.15;;;10.30;99.90;;;;;;6120330;23;20533;-66
2023/03/09 07:10:32;;;;;;;5.30;1.88;;;10.10;99.90;;;;;;6119588;23;20194;-66
2023/03/09 07:13:00;;;;;;;4.78;1.70;;;10.10;99.90;;;;;;6119913;23;20512;-67
2023/03/09 07:15:27;;;;;;;5.28;1.70;;;10.20;99.90;;;;;;6117446;23;20274;-66
2023/03/09 07:17:55;;;;;;;4.25;1.60;;;10.30;99.90;;;;;;6118659;23;20219;-66
2023/03/09 07:20:24;;;;;;;7.65;2.30;;;10.30;99.90;;;;;;6109339;23;20198;-66
2023/03/09 07:22:51;;;;;;;4.25;1.58;;;10.30;99.90;;;;;;6120373;23;20278;-66
2023/03/09 07:25:18;;;;;;;5.35;2.22;;;10.40;99.90;;;;;;6117425;23;20269;-65
2023/03/09 07:27:47;;;;;;;6.20;1.65;;;10.40;99.90;;;;;;6117498;23;20184;-66
2023/03/09 07:30:15;;;;;;;5.70;1.75;;;10.50;99.90;;;;;;6091147;23;20192;-65
2023/03/09 07:32:42;;;;;;;8.27;2.03;;;10.50;99.90;;;;;;6118561;23;20258;-66
2023/03/09 07:35:10;;;;;;;4.20;2.25;;;10.50;99.90;;;;;;6118022;23;20282;-66
2023/03/09 07:37:37;;;;;;;5.82;1.77;;;10.60;99.90;;;;;;6119667;23;20187;-65
2023/03/09 07:40:06;;;;;;;4.93;1.60;;;10.60;99.90;;;;;;6118408;23;20211;-66
2023/03/09 07:42:33;;;;;;;6.53;1.80;;;10.60;99.90;;;;;;6090952;23;20184;-66
2023/03/09 07:45:00;;;;;;;6.22;1.98;;;10.70;99.90;;;;;;6100226;23;20218;-65
2023/03/09 07:47:27;;;;;;;7.60;1.65;;;10.70;99.90;;;;;;6119658;23;20188;-65
2023/03/09 07:49:54;;;;;;;5.78;1.60;;;10.80;99.90;;;;;;6119992;23;20811;-67
2023/03/09 07:52:24;;;;;;;3.53;1.92;;;10.90;99.90;;;;;;6093266;23;20192;-67
2023/03/09 07:54:51;;;;;;;5.32;1.50;;;11.00;99.90;;;;;;6101871;23;20270;-66
2023/03/09 07:57:19;;;;;;;5.30;1.75;;;11.10;99.90;;;;;;6119637;23;20241;-65
2023/03/09 07:59:45;;;;;;;3.35;1.40;;;11.20;99.90;;;;;;6120067;23;20242;-66
2023/03/09 08:02:12;;;;;;;3.90;1.70;;;11.20;99.90;;;;;;6095558;23;20188;-65
2023/03/09 08:04:39;;;;;;;2.97;1.25;;;11.30;99.90;;;;;;6094855;23;20192;-66
2023/03/09 08:07:06;;;;;;;2.72;1.30;;;11.40;99.90;;;;;;6119458;23;20183;-65
2023/03/09 08:09:35;;;;;;;4.50;1.55;;;11.40;99.90;;;;;;6118796;23;20211;-65
2023/03/09 08:12:02;;;;;;;5.35;1.85;;;11.50;99.90;;;;;;6110796;23;20188;-66
2023/03/09 08:14:29;;;;;;;3.97;1.40;;;11.50;99.90;;;;;;6119086;23;20194;-66
2023/03/09 08:16:56;;;;;;;6.30;1.33;;;11.50;99.90;;;;;;6118257;23;20662;-66
2023/03/09 08:19:23;;;;;;;2.88;1.45;;;11.50;99.90;;;;;;6119726;23;21159;-65
2023/03/09 08:21:50;;;;;;;5.00;1.50;;;11.60;99.90;;;;;;6094723;23;20184;-65
2023/03/09 08:24:17;;;;;;;6.65;2.22;;;11.60;99.90;;;;;;6093285;23;20264;-66
2023/03/09 08:26:46;;;;;;;3.63;1.38;;;11.70;99.90;;;;;;6105042;23;20373;-66
2023/03/09 08:29:13;;;;;;;2.55;1.15;;;11.70;99.90;;;;;;6104881;23;20206;-66
2023/03/09 08:31:40;;;;;;;5.33;1.60;;;11.70;99.90;;;;;;6111623;23;20257;-66
2023/03/09 08:34:08;;;;;;;3.92;1.10;;;11.70;99.90;;;;;;6119829;23;20500;-66
2023/03/09 08:36:34;;;;;;;3.53;1.30;;;11.80;99.90;;;;;;6113361;23;20227;-65
2023/03/09 08:39:01;;;;;;;5.82;1.00;;;11.80;99.90;;;;;;6120281;23;20442;-65
2023/03/09 08:41:28;;;;;;;3.28;1.30;;;11.80;99.90;;;;;;6099252;23;20271;-65
2023/03/09 08:43:57;;;;;;;2.55;1.20;;;11.70;99.90;;;;;;6094159;23;20264;-66
2023/03/09 08:46:24;;;;;;;2.63;1.33;;;11.70;99.90;;;;;;6103218;23;20216;-66
2023/03/09 08:48:51;;;;;;;4.22;1.50;;;11.70;99.90;;;;;;6119606;23;20264;-68
2023/03/09 08:51:19;;;;;;;3.17;1.38;;;11.60;99.90;;;;;;6101797;23;20567;-66
2023/03/09 08:53:46;;;;;;;3.60;1.27;;;11.60;99.90;;;;;;6090094;23;20689;-66
2023/03/09 08:56:13;;;;;;;2.70;1.25;;;11.60;99.90;;;;;;6103275;23;20270;-66
2023/03/09 08:58:40;;;;;;;3.00;1.50;;;11.60;99.90;;;;;;6118317;23;20211;-67
2023/03/09 09:01:10;;;;;;;2.67;1.30;;;11.60;99.90;;;;;;6112712;23;20187;-66
2023/03/09 09:03:39;;;;;;;2.58;1.35;;;11.70;99.90;;;;;;6119802;23;20189;-66
2023/03/09 09:06:09;;;;;;;5.82;1.42;;;11.60;99.90;;;;;;6118366;23;20207;-66
2023/03/09 09:08:36;;;;;;;4.15;1.30;;;11.60;99.90;;;;;;6118287;23;20217;-65
2023/03/09 09:11:06;;;;;;;3.08;1.35;;;11.40;99.90;;;;;;6115315;23;20184;-66
2023/03/09 09:13:33;;;;;;;3.72;1.30;;;11.40;99.90;;;;;;6106959;23;20187;-66
2023/03/09 09:16:01;;;;;;;5.80;1.35;;;11.30;99.90;;;;;;6119168;23;20266;-66
2023/03/09 09:18:29;;;;;;;3.83;1.45;;;11.30;99.90;;;;;;6118183;23;20208;-66
2023/03/09 09:20:57;;;;;;;2.70;1.20;;;11.40;99.90;;;;;;6118862;23;20187;-66
2023/03/09 09:23:24;;;;;;;3.42;1.35;;;11.40;99.90;;;;;;6104963;23;20525;-66
2023/03/09 09:25:55;;;;;;;2.83;1.10;;;11.50;99.90;;;;;;6112542;23;20215;-66
2023/03/09 09:28:23;;;;;;;3.47;1.42;;;11.40;99.90;;;;;;6117374;23;20219;-66
2023/03/09 09:30:54;;;;;;;2.63;1.20;;;11.40;99.90;;;;;;6118819;23;20183;-66
2023/03/09 09:33:21;;;;;;;3.20;1.10;;;11.40;99.90;;;;;;6105995;23;20296;-66
2023/03/09 09:35:57;;;;;;;4.03;1.50;;;11.40;99.90;;;;;;6090551;23;20224;-66
2023/03/09 09:38:25;;;;;;;4.63;1.33;;;11.40;99.90;;;;;;6111870;23;20211;-66
2023/03/09 09:40:53;;;;;;;3.38;1.20;;;11.40;99.90;;;;;;6094310;23;20192;-66
2023/03/09 09:43:22;;;;;;;2.45;1.00;;;11.50;99.90;;;;;;6106838;23;20266;-66
2023/03/09 09:45:51;;;;;;;3.30;1.25;;;11.50;99.90;;;;;;6091285;23;20211;-66
2023/03/09 09:48:18;;;;;;;3.00;1.58;;;11.60;99.90;;;;;;6109622;23;20239;-65
2023/03/09 09:50:57;;;;;;;1.95;1.20;;;11.60;99.90;;;;;;6094020;23;20246;-67
2023/03/09 09:53:35;;;;;;;3.00;1.27;;;11.60;99.90;;;;;;6118383;23;20205;-66
2023/03/09 09:56:03;;;;;;;3.35;1.48;;;11.70;99.90;;;;;;6091679;23;20234;-66
2023/03/09 09:58:36;;;;;;;2.10;1.00;;;11.70;99.90;;;;;;6111334;23;20207;-66
2023/03/09 10:01:12;;;;;;;1.98;1.00;;;11.70;99.90;;;;;;6091881;23;20183;-65
2023/03/09 10:03:45;;;;;;;4.18;1.20;;;11.60;99.90;;;;;;6095514;23;20266;-65
2023/03/09 10:06:17;;;;;;;2.33;1.05;;;11.60;99.90;;;;;;6109497;23;20215;-66
2023/03/09 10:08:49;;;;;;;3.67;1.50;;;11.60;99.90;;;;;;6117969;23;20272;-66
2023/03/09 10:11:23;;;;;;;3.45;1.45;;;11.50;99.90;;;;;;6097514;23;20184;-65
2023/03/09 10:13:54;;;;;;;3.08;1.42;;;11.60;99.90;;;;;;6113959;23;20198;-65
2023/03/09 10:16:25;;;;;;;2.65;1.10;;;11.50;99.90;;;;;;6107259;23;20215;-66
2023/03/09 10:18:55;;;;;;;3.03;1.10;;;11.50;99.90;;;;;;6115686;23;20276;-66
2023/03/09 10:21:27;;;;;;;1.92;1.00;;;11.50;99.90;;;;;;6120061;23;20194;-66
2023/03/09 10:23:57;;;;;;;2.55;0.98;;;11.50;99.90;;;;;;6097988;23;20262;-67
2023/03/09 10:26:37;;;;;;;2.63;1.23;;;11.40;99.90;;;;;;6091626;23;20211;-67
2023/03/09 10:29:13;;;;;;;2.95;1.50;;;11.40;99.90;;;;;;6093258;23;20290;-66
2023/03/09 10:31:45;;;;;;;1.85;0.98;;;11.30;99.90;;;;;;6120632;23;20266;-66
2023/03/09 10:34:17;;;;;;;2.13;1.00;;;11.30;99.90;;;;;;6097982;23;20219;-66
2023/03/09 10:36:56;;;;;;;2.65;1.00;;;11.20;99.90;;;;;;6119614;23;20190;-66
2023/03/09 10:39:26;;;;;;;2.13;1.20;;;11.20;99.90;;;;;;6118403;23;20949;-66
2023/03/09 10:41:56;;;;;;;4.15;1.20;;;11.20;99.90;;;;;;6120720;23;20266;-69
2023/03/09 10:44:24;;;;;;;1.58;0.95;;;11.40;99.90;;;;;;6091013;23;20555;-66
2023/03/09 10:46:59;;;;;;;2.10;1.15;;;11.50;99.90;;;;;;6107040;23;20560;-66
2023/03/09 10:49:27;;;;;;;1.75;0.85;;;11.80;99.90;;;;;;6113269;23;20579;-66
2023/03/09 10:52:00;;;;;;;2.15;0.80;;;12.00;99.90;;;;;;6091458;23;20271;-66
2023/03/09 10:54:35;;;;;;;2.50;1.00;;;12.20;99.90;;;;;;6090837;23;20267;-66
2023/03/09 10:57:02;;;;;;;4.23;1.10;;;12.30;99.90;;;;;;6094792;23;20523;-66
2023/03/09 10:59:30;;;;;;;1.70;1.10;;;12.50;99.90;;;;;;6120151;23;20534;-65
2023/03/09 11:02:00;;;;;;;3.03;1.20;;;12.60;99.90;;;;;;6120585;23;20521;-66
2023/03/09 11:04:37;;;;;;;2.47;1.33;;;12.70;99.90;;;;;;6111289;23;20430;-65
2023/03/09 11:07:17;;;;;;;1.37;0.90;;;12.70;99.90;;;;;;6119071;23;20556;-66
2023/03/09 11:09:52;;;;;;;2.03;0.80;;;13.00;99.90;;;;;;6119764;23;20816;-66
2023/03/09 11:12:25;;;;;;;3.10;1.10;;;13.50;99.90;;;;;;6116788;23;20428;-65
2023/03/09 11:14:55;;;;;;;1.63;1.00;;;13.70;99.90;;;;;;6116308;23;20474;-65
2023/03/09 11:17:29;;;;;;;3.90;1.23;;;13.90;99.90;;;;;;6100252;23;20526;-66
2023/03/09 11:20:32;;;;;;;2.00;0.90;;;14.10;99.90;;;;;;6120540;23;20424;-65
2023/03/09 11:23:03;;;;;;;4.13;1.07;;;14.30;99.90;;;;;;6119477;23;20424;-67
2023/03/09 11:25:44;;;;;;;3.30;1.20;;;14.40;99.90;;;;;;6100264;23;20446;-66
2023/03/09 11:28:21;;;;;;;3.40;1.40;;;14.40;99.90;;;;;;6106948;23;20973;-66
2023/03/09 11:30:52;;;;;;;2.20;0.97;;;14.40;99.90;;;;;;6120318;23;20498;-66
2023/03/09 11:33:20;;;;;;;2.30;1.40;;;14.40;99.90;;;;;;6119506;23;20528;-66
2023/03/09 11:35:51;;;;;;;3.53;1.20;;;14.70;99.90;;;;;;6094673;23;20456;-66
2023/03/09 11:38:20;;;;;;;3.63;1.30;;;14.90;99.90;;;;;;6107388;23;20997;-66
2023/03/09 11:40:51;;;;;;;3.03;1.17;;;15.10;99.90;;;;;;6120514;23;20437;-66
2023/03/09 11:43:22;;;;;;;2.53;1.07;;;15.10;99.90;;;;;;6119124;23;20452;-66
2023/03/09 11:45:52;;;;;;;2.43;1.00;;;15.00;99.90;;;;;;6094549;23;20418;-66
2023/03/09 11:48:24;;;;;;;2.40;0.90;;;14.90;99.90;;;;;;6107120;23;20548;-66
2023/03/09 11:50:59;;;;;;;2.40;1.00;;;14.60;99.90;;;;;;6120164;23;20767;-66
2023/03/09 11:53:31;;;;;;;3.40;1.00;;;14.50;99.90;;;;;;6119261;23;20423;-66
2023/03/09 11:56:10;;;;;;;2.30;1.10;;;14.90;99.90;;;;;;6114499;23;20568;-66
2023/03/09 11:58:40;;;;;;;1.70;0.90;;;15.50;99.90;;;;;;6119263;23;20492;-65
2023/03/09 12:01:16;;;;;;;1.67;0.80;;;15.90;99.90;;;;;;6120173;23;20413;-65
2023/03/09 12:03:50;;;;;;;2.83;1.20;;;16.00;99.90;;;;;;6102215;23;20444;-65
2023/03/09 12:06:39;;;;;;;1.43;0.80;;;16.30;99.90;;;;;;6106902;23;20452;-66
2023/03/09 12:09:10;;;;;;;1.00;0.80;;;16.10;99.90;;;;;;6117406;23;20839;-66
2023/03/09 12:11:44;;;;;;;1.60;0.60;;;15.70;99.90;;;;;;6120540;23;20642;-66
2023/03/09 12:14:19;;;;;;;1.23;0.77;;;15.20;99.90;;;;;;6118999;23;20841;-66
2023/03/09 12:16:50;;;;;;;1.30;0.80;;;15.10;99.90;;;;;;6092408;23;20496;-65
2023/03/09 12:19:20;;;;;;;1.40;0.80;;;14.80;99.90;;;;;;6116908;23;20540;-65
2023/03/09 12:21:50;;;;;;;1.90;0.80;;;14.80;99.90;;;;;;6119218;23;20846;-66
2023/03/09 12:24:30;;;;;;;1.37;0.80;;;14.70;99.90;;;;;;6118150;23;20795;-66
2023/03/09 12:27:02;;;;;;;2.43;0.90;;;14.90;99.90;;;;;;6090428;23;20476;-66
2023/03/09 12:29:36;;;;;;;2.50;1.00;;;14.80;99.90;;;;;;6118876;23;20511;-65
2023/03/09 12:32:39;;;;;;;1.33;0.97;;;14.90;99.90;;;;;;6108261;23;20501;-67
2023/03/09 12:35:41;;;;;;;4.00;0.90;;;15.10;99.90;;;;;;6065269;23;20429;-66
2023/03/09 12:38:21;;;;;;;2.43;1.33;;;15.10;99.90;;;;;;6105069;23;20472;-65
2023/03/09 12:40:48;;;;;;;2.33;1.07;;;15.40;99.90;;;;;;6119746;23;20424;-67
2023/03/09 12:43:46;;;;;;;1.70;0.90;;;15.40;99.90;;;;;;6119910;23;20429;-67
2023/03/09 12:46:56;;;;;;;2.37;1.17;;;15.30;99.90;;;;;;6119050;23;20957;-67
2023/03/09 12:49:27;;;;;;;2.10;0.90;;;15.00;99.90;;;;;;6118063;23;21000;-66
2023/03/09 12:52:19;;;;;;;1.93;0.90;;;14.70;99.90;;;;;;6120037;23;20441;-65
2023/03/09 12:54:55;;;;;;;5.90;2.10;;;14.60;99.90;;;;;;6111722;23;20426;-66
2023/03/09 12:57:23;;;;;;;2.93;1.10;;;14.30;99.90;;;;;;6095411;23;20454;-65
2023/03/09 12:59:53;;;;;;;2.07;1.20;;;14.10;99.90;;;;;;6095338;23;20928;-66
2023/03/09 13:02:36;;;;;;;3.10;1.20;;;14.10;99.90;;;;;;6120031;23;20423;-66